Celtic Crusader — 2GGS3 — position and weather

sailwx.info

Track history (hours):
 
Tides and Currents Weather Stations Pressure Air Temp Water Temp Dewpoint Dewpoint Depression Visibility Wind Speed Wind Dir Waves Ship Positions

Celtic Crusader

Last reported at 2018-Aug-14 06:31 UTC. Time now 2018-Aug-14 06:59 UTC.
Position N 38°29' W 009°34'.

Length 88 m; draft 5.6 m.

Type: Cargo ship. MMSI: 235097248.

Date/timePositionNaut miles runAvg speedWind from/ knotsBaromVisibWave heightAir tempDewpointWater temp
2018-Aug-14 06:31N 38°29' W 009°34'4 8.5
2018-Aug-14 06:00N 38°26' W 009°29'4 8.2
2018-Aug-14 05:30N 38°24' W 009°25'4 8.2
2018-Aug-14 05:01N 38°22' W 009°21'4 8.7
2018-Aug-14 04:30N 38°17' W 009°21'4 8.3
2018-Aug-14 04:00N 38°13' W 009°19'4 8.5
2018-Aug-14 03:30N 38°09' W 009°19'4 8.7
2018-Aug-14 03:01N 38°05' W 009°18'4 8.5
2018-Aug-14 02:30N 38°00' W 009°18'4 8.2
2018-Aug-14 02:00N 37°56' W 009°18'4 8.3
2018-Aug-14 01:30N 37°52' W 009°18'4 7.8
2018-Aug-14 01:00N 37°48' W 009°18'4 8.0
2018-Aug-14 00:30N 37°44' W 009°18'5 8.3
2018-Aug-13 23:51N 37°39' W 009°19'3 8.3
2018-Aug-13 23:30N 37°36' W 009°19'4 7.8
2018-Aug-13 22:59N 37°32' W 009°18'4 8.0
2018-Aug-13 22:28N 37°28' W 009°18'5 8.2
2018-Aug-13 21:54N 37°23' W 009°19'4 7.9
2018-Aug-13 21:25N 37°19' W 009°19'3 7.7
2018-Aug-13 20:58N 37°16' W 009°19'4 8.0
2018-Aug-13 20:30N 37°12' W 009°20'17 8.2
2018-Aug-13 18:24N 36°55' W 009°18'3 8.2
2018-Aug-13 18:00N 36°52' W 009°16'4 8.7
2018-Aug-13 17:30N 36°49' W 009°13'5 8.9
2018-Aug-13 17:00N 36°46' W 009°09'4 8.8
2018-Aug-13 16:30N 36°44' W 009°04'4 8.7
2018-Aug-13 16:00N 36°43' W 008°59'4 8.7
2018-Aug-13 15:30N 36°41' W 008°54'4 8.3
2018-Aug-13 15:00N 36°40' W 008°49'4 8.0
2018-Aug-13 14:29N 36°39' W 008°44'4 8.2
2018-Aug-13 14:00N 36°38' W 008°39'4 8.5
2018-Aug-13 13:30N 36°37' W 008°34'16 8.8
2018-Aug-13 11:42N 36°33' W 008°15'2 8.9
2018-Aug-13 11:29N 36°32' W 008°12'4 9.1
2018-Aug-13 11:00N 36°31' W 008°07'5 9.1
2018-Aug-13 10:26N 36°29' W 008°01'120 9.4
2018-Aug-12 21:41N 35°58' W 005°38'2 7.1
2018-Aug-12 21:28N 35°58' W 005°36'3 6.9
2018-Aug-12 21:00N 35°59' W 005°32'3 6.2
2018-Aug-12 20:31N 36°00' W 005°29'3 5.7
2018-Aug-12 20:00N 36°01' W 005°25'3 5.4
2018-Aug-12 19:30N 36°01' W 005°22'3 6.1
2018-Aug-12 19:00N 36°02' W 005°18'4 7.8
2018-Aug-12 18:30N 36°03' W 005°13'229 7.9
2018-Aug-11 13:32N 37°25' W 000°47'2 9.3
2018-Aug-11 13:18N 37°27' W 000°45'10 9.3
2018-Aug-11 12:10N 37°33' W 000°35'2 8.9
2018-Aug-11 11:56N 37°35' W 000°33'6 8.7
2018-Aug-11 11:18N 37°39' W 000°29'3 8.6
2018-Aug-11 11:01N 37°42' W 000°28'11 8.7
2018-Aug-11 09:42N 37°51' W 000°20'7 8.7
2018-Aug-11 08:56N 37°57' W 000°15'4 8.7
2018-Aug-11 08:30N 37°60' W 000°12'  
2018-Aug-07 14:28N 38°48' E 000°26'12 8.9
2018-Aug-07 13:07N 38°36' E 000°23'4 9.7
2018-Aug-07 12:43N 38°33' E 000°20'58 9.5
2018-Aug-07 06:38N 37°45' W 000°21'1 9.4
2018-Aug-07 06:30N 37°44' W 000°22'5 9.4
2018-Aug-07 06:00N 37°40' W 000°25'5 9.4
2018-Aug-07 05:30N 37°36' W 000°29'5 9.3
2018-Aug-07 05:00N 37°33' W 000°32'9 9.2
2018-Aug-07 04:04N 37°27' W 000°40'4 9.3
2018-Aug-07 03:38N 37°24' W 000°44'1 9.3
2018-Aug-07 03:30N 37°23' W 000°45'6 9.5
2018-Aug-07 02:50N 37°19' W 000°51'4 9.6
2018-Aug-07 02:28N 37°16' W 000°54'16 9.6
2018-Aug-07 00:48N 37°06' W 001°09'206 9.8
2018-Aug-06 03:49N 35°59' W 005°12'311.1
2018-Aug-06 03:30N 35°59' W 005°16'511.0
2018-Aug-06 03:00N 35°58' W 005°23'511.0
2018-Aug-06 02:30N 35°57' W 005°29'610.3
2018-Aug-06 01:57N 35°55' W 005°36'6 9.5
2018-Aug-06 01:20N 35°54' W 005°43'97 9.1
2018-Aug-05 14:36N 36°14' W 007°41'6 9.4
2018-Aug-05 14:00N 36°15' W 007°48'5 9.3
2018-Aug-05 13:30N 36°16' W 007°53'5 9.4
2018-Aug-05 13:00N 36°18' W 007°59'5 9.6
2018-Aug-05 12:30N 36°19' W 008°05'5 9.4
2018-Aug-05 12:00N 36°20' W 008°10'5 9.4
2018-Aug-05 11:30N 36°22' W 008°16'5 9.3
2018-Aug-05 11:00N 36°23' W 008°21'8 9.4
2018-Aug-05 10:10N 36°25' W 008°31'2 9.2
2018-Aug-05 10:00N 36°25' W 008°33'5 9.4
2018-Aug-05 09:30N 36°27' W 008°38'5 9.2
2018-Aug-05 09:00N 36°28' W 008°44'5 9.1
2018-Aug-05 08:29N 36°29' W 008°49'5 9.0
2018-Aug-05 07:57N 36°30' W 008°55'4 8.7
2018-Aug-05 07:30N 36°31' W 008°60'4 8.8
2018-Aug-05 06:59N 36°32' W 009°05'4 8.8
2018-Aug-05 06:30N 36°34' W 009°10'4 8.9
2018-Aug-05 06:00N 36°35' W 009°16'4 8.7
2018-Aug-05 05:30N 36°38' W 009°20'5 9.1
2018-Aug-05 04:58N 36°41' W 009°24'4 9.1
2018-Aug-05 04:30N 36°44' W 009°28'5 9.2
2018-Aug-05 04:00N 36°48' W 009°31'5 9.5
2018-Aug-05 03:29N 36°52' W 009°34'5 9.7
2018-Aug-05 03:00N 36°57' W 009°36'510.1
2018-Aug-05 02:30N 37°01' W 009°37'510.1
2018-Aug-05 01:59N 37°07' W 009°38'5 9.9
2018-Aug-05 01:30N 37°11' W 009°39'5 9.9
2018-Aug-05 01:00N 37°16' W 009°41'5 9.5
2018-Aug-05 00:30N 37°21' W 009°42'5 9.7
2018-Aug-05 00:00N 37°25' W 009°43'5 9.5
2018-Aug-04 23:30N 37°30' W 009°45'5 9.3
2018-Aug-04 23:00N 37°35' W 009°46'5 9.4
2018-Aug-04 22:30N 37°39' W 009°48'510.0
2018-Aug-04 22:00N 37°44' W 009°49'5 9.9
2018-Aug-04 21:30N 37°49' W 009°50'5 9.7
2018-Aug-04 21:00N 37°54' W 009°52'5 9.7
2018-Aug-04 20:30N 37°58' W 009°53'5 9.5
2018-Aug-04 20:00N 38°03' W 009°54'5 9.3
2018-Aug-04 19:30N 38°08' W 009°55'5 9.3
2018-Aug-04 19:00N 38°12' W 009°56'4 9.0
2018-Aug-04 18:30N 38°17' W 009°57'5 9.2
2018-Aug-04 18:00N 38°21' W 009°59'5 9.2
2018-Aug-04 17:30N 38°25' W 010°00'5 9.2
2018-Aug-04 17:00N 38°30' W 010°02'5 9.2
2018-Aug-04 16:30N 38°34' W 010°03'5 9.3
2018-Aug-04 16:00N 38°39' W 010°04'5 9.5
2018-Aug-04 15:30N 38°44' W 010°05'5 9.6
2018-Aug-04 15:00N 38°48' W 010°05'5 9.5
2018-Aug-04 14:30N 38°53' W 010°05'5 9.6
2018-Aug-04 14:00N 38°58' W 010°05'5 9.8
2018-Aug-04 13:30N 39°03' W 010°05'510.2
2018-Aug-04 13:00N 39°08' W 010°06'5 9.9
2018-Aug-04 12:30N 39°13' W 010°05'5 9.2
2018-Aug-04 12:00N 39°18' W 010°05'5 9.1
2018-Aug-04 11:30N 39°22' W 010°05'5 9.1
2018-Aug-04 11:00N 39°27' W 010°05'5 9.3
2018-Aug-04 10:30N 39°31' W 010°05'5 9.2
2018-Aug-04 10:00N 39°36' W 010°05'5 9.6
2018-Aug-04 09:30N 39°41' W 010°05'5 9.6
2018-Aug-04 09:00N 39°46' W 010°05'5 9.3
2018-Aug-04 08:30N 39°50' W 010°05'5 9.4
2018-Aug-04 07:56N 39°55' W 010°05'4 9.2
2018-Aug-04 07:30N 39°59' W 010°05'5 9.0
2018-Aug-04 07:00N 40°04' W 010°05'  
Track history (hours):
 
Tides and Currents Weather Stations Pressure Air Temp Water Temp Dewpoint Dewpoint Depression Visibility Wind Speed Wind Dir Waves Ship Positions

Celtic Crusader

Last reported at 2018-Aug-14 06:31 UTC. Time now 2018-Aug-14 06:59 UTC.
Position N 38°29' W 009°34'.

Length 88 m; draft 5.6 m.

Type: Cargo ship. MMSI: 235097248.

Date/timePositionNaut miles runAvg speedWind from/ knotsBaromVisibWave heightAir tempDewpointWater temp
2018-Aug-14 06:31N 38°29' W 009°34'4 8.5
2018-Aug-14 06:00N 38°26' W 009°29'4 8.2
2018-Aug-14 05:30N 38°24' W 009°25'4 8.2
2018-Aug-14 05:01N 38°22' W 009°21'4 8.7
2018-Aug-14 04:30N 38°17' W 009°21'4 8.3
2018-Aug-14 04:00N 38°13' W 009°19'4 8.5
2018-Aug-14 03:30N 38°09' W 009°19'4 8.7
2018-Aug-14 03:01N 38°05' W 009°18'4 8.5
2018-Aug-14 02:30N 38°00' W 009°18'4 8.2
2018-Aug-14 02:00N 37°56' W 009°18'4 8.3
2018-Aug-14 01:30N 37°52' W 009°18'4 7.8
2018-Aug-14 01:00N 37°48' W 009°18'4 8.0
2018-Aug-14 00:30N 37°44' W 009°18'5 8.3
2018-Aug-13 23:51N 37°39' W 009°19'3 8.3
2018-Aug-13 23:30N 37°36' W 009°19'4 7.8
2018-Aug-13 22:59N 37°32' W 009°18'4 8.0
2018-Aug-13 22:28N 37°28' W 009°18'5 8.2
2018-Aug-13 21:54N 37°23' W 009°19'4 7.9
2018-Aug-13 21:25N 37°19' W 009°19'3 7.7
2018-Aug-13 20:58N 37°16' W 009°19'4 8.0
2018-Aug-13 20:30N 37°12' W 009°20'17 8.2
2018-Aug-13 18:24N 36°55' W 009°18'3 8.2
2018-Aug-13 18:00N 36°52' W 009°16'4 8.7
2018-Aug-13 17:30N 36°49' W 009°13'5 8.9
2018-Aug-13 17:00N 36°46' W 009°09'4 8.8
2018-Aug-13 16:30N 36°44' W 009°04'4 8.7
2018-Aug-13 16:00N 36°43' W 008°59'4 8.7
2018-Aug-13 15:30N 36°41' W 008°54'4 8.3
2018-Aug-13 15:00N 36°40' W 008°49'4 8.0
2018-Aug-13 14:29N 36°39' W 008°44'4 8.2
2018-Aug-13 14:00N 36°38' W 008°39'4 8.5
2018-Aug-13 13:30N 36°37' W 008°34'16 8.8
2018-Aug-13 11:42N 36°33' W 008°15'2 8.9
2018-Aug-13 11:29N 36°32' W 008°12'4 9.1
2018-Aug-13 11:00N 36°31' W 008°07'5 9.1
2018-Aug-13 10:26N 36°29' W 008°01'120 9.4
2018-Aug-12 21:41N 35°58' W 005°38'2 7.1
2018-Aug-12 21:28N 35°58' W 005°36'3 6.9
2018-Aug-12 21:00N 35°59' W 005°32'3 6.2
2018-Aug-12 20:31N 36°00' W 005°29'3 5.7
2018-Aug-12 20:00N 36°01' W 005°25'3 5.4
2018-Aug-12 19:30N 36°01' W 005°22'3 6.1
2018-Aug-12 19:00N 36°02' W 005°18'4 7.8
2018-Aug-12 18:30N 36°03' W 005°13'229 7.9
2018-Aug-11 13:32N 37°25' W 000°47'2 9.3
2018-Aug-11 13:18N 37°27' W 000°45'10 9.3
2018-Aug-11 12:10N 37°33' W 000°35'2 8.9
2018-Aug-11 11:56N 37°35' W 000°33'6 8.7
2018-Aug-11 11:18N 37°39' W 000°29'3 8.6
2018-Aug-11 11:01N 37°42' W 000°28'11 8.7
2018-Aug-11 09:42N 37°51' W 000°20'7 8.7
2018-Aug-11 08:56N 37°57' W 000°15'4 8.7
2018-Aug-11 08:30N 37°60' W 000°12'  
2018-Aug-07 14:28N 38°48' E 000°26'12 8.9
2018-Aug-07 13:07N 38°36' E 000°23'4 9.7
2018-Aug-07 12:43N 38°33' E 000°20'58 9.5
2018-Aug-07 06:38N 37°45' W 000°21'1 9.4
2018-Aug-07 06:30N 37°44' W 000°22'5 9.4
2018-Aug-07 06:00N 37°40' W 000°25'5 9.4
2018-Aug-07 05:30N 37°36' W 000°29'5 9.3
2018-Aug-07 05:00N 37°33' W 000°32'9 9.2
2018-Aug-07 04:04N 37°27' W 000°40'4 9.3
2018-Aug-07 03:38N 37°24' W 000°44'1 9.3
2018-Aug-07 03:30N 37°23' W 000°45'6 9.5
2018-Aug-07 02:50N 37°19' W 000°51'4 9.6
2018-Aug-07 02:28N 37°16' W 000°54'16 9.6
2018-Aug-07 00:48N 37°06' W 001°09'206 9.8
2018-Aug-06 03:49N 35°59' W 005°12'311.1
2018-Aug-06 03:30N 35°59' W 005°16'511.0
2018-Aug-06 03:00N 35°58' W 005°23'511.0
2018-Aug-06 02:30N 35°57' W 005°29'610.3
2018-Aug-06 01:57N 35°55' W 005°36'6 9.5
2018-Aug-06 01:20N 35°54' W 005°43'97 9.1
2018-Aug-05 14:36N 36°14' W 007°41'6 9.4
2018-Aug-05 14:00N 36°15' W 007°48'5 9.3
2018-Aug-05 13:30N 36°16' W 007°53'5 9.4
2018-Aug-05 13:00N 36°18' W 007°59'5 9.6
2018-Aug-05 12:30N 36°19' W 008°05'5 9.4
2018-Aug-05 12:00N 36°20' W 008°10'5 9.4
2018-Aug-05 11:30N 36°22' W 008°16'5 9.3
2018-Aug-05 11:00N 36°23' W 008°21'8 9.4
2018-Aug-05 10:10N 36°25' W 008°31'2 9.2
2018-Aug-05 10:00N 36°25' W 008°33'5 9.4
2018-Aug-05 09:30N 36°27' W 008°38'5 9.2
2018-Aug-05 09:00N 36°28' W 008°44'5 9.1
2018-Aug-05 08:29N 36°29' W 008°49'5 9.0
2018-Aug-05 07:57N 36°30' W 008°55'4 8.7
2018-Aug-05 07:30N 36°31' W 008°60'4 8.8
2018-Aug-05 06:59N 36°32' W 009°05'4 8.8
2018-Aug-05 06:30N 36°34' W 009°10'4 8.9
2018-Aug-05 06:00N 36°35' W 009°16'4 8.7
2018-Aug-05 05:30N 36°38' W 009°20'5 9.1
2018-Aug-05 04:58N 36°41' W 009°24'4 9.1
2018-Aug-05 04:30N 36°44' W 009°28'5 9.2
2018-Aug-05 04:00N 36°48' W 009°31'5 9.5
2018-Aug-05 03:29N 36°52' W 009°34'5 9.7
2018-Aug-05 03:00N 36°57' W 009°36'510.1
2018-Aug-05 02:30N 37°01' W 009°37'510.1
2018-Aug-05 01:59N 37°07' W 009°38'5 9.9
2018-Aug-05 01:30N 37°11' W 009°39'5 9.9
2018-Aug-05 01:00N 37°16' W 009°41'5 9.5
2018-Aug-05 00:30N 37°21' W 009°42'5 9.7
2018-Aug-05 00:00N 37°25' W 009°43'5 9.5
2018-Aug-04 23:30N 37°30' W 009°45'5 9.3
2018-Aug-04 23:00N 37°35' W 009°46'5 9.4
2018-Aug-04 22:30N 37°39' W 009°48'510.0
2018-Aug-04 22:00N 37°44' W 009°49'5 9.9
2018-Aug-04 21:30N 37°49' W 009°50'5 9.7
2018-Aug-04 21:00N 37°54' W 009°52'5 9.7
2018-Aug-04 20:30N 37°58' W 009°53'5 9.5
2018-Aug-04 20:00N 38°03' W 009°54'5 9.3
2018-Aug-04 19:30N 38°08' W 009°55'5 9.3
2018-Aug-04 19:00N 38°12' W 009°56'4 9.0
2018-Aug-04 18:30N 38°17' W 009°57'5 9.2
2018-Aug-04 18:00N 38°21' W 009°59'5 9.2
2018-Aug-04 17:30N 38°25' W 010°00'5 9.2
2018-Aug-04 17:00N 38°30' W 010°02'5 9.2
2018-Aug-04 16:30N 38°34' W 010°03'5 9.3
2018-Aug-04 16:00N 38°39' W 010°04'5 9.5
2018-Aug-04 15:30N 38°44' W 010°05'5 9.6
2018-Aug-04 15:00N 38°48' W 010°05'5 9.5
2018-Aug-04 14:30N 38°53' W 010°05'5 9.6
2018-Aug-04 14:00N 38°58' W 010°05'5 9.8
2018-Aug-04 13:30N 39°03' W 010°05'510.2
2018-Aug-04 13:00N 39°08' W 010°06'5 9.9
2018-Aug-04 12:30N 39°13' W 010°05'5 9.2
2018-Aug-04 12:00N 39°18' W 010°05'5 9.1
2018-Aug-04 11:30N 39°22' W 010°05'5 9.1
2018-Aug-04 11:00N 39°27' W 010°05'5 9.3
2018-Aug-04 10:30N 39°31' W 010°05'5 9.2
2018-Aug-04 10:00N 39°36' W 010°05'5 9.6
2018-Aug-04 09:30N 39°41' W 010°05'5 9.6
2018-Aug-04 09:00N 39°46' W 010°05'5 9.3
2018-Aug-04 08:30N 39°50' W 010°05'5 9.4
2018-Aug-04 07:56N 39°55' W 010°05'4 9.2
2018-Aug-04 07:30N 39°59' W 010°05'5 9.0
2018-Aug-04 07:00N 40°04' W 010°05'  

Dump ship's entire track history